createdAt,value
2022-08-08T00:00:52.315Z,22.30
2022-08-08T00:02:46.269Z,22.10
2022-08-08T00:05:18.274Z,21.90
2022-08-08T00:07:51.844Z,21.60
2022-08-08T00:10:28.492Z,21.80
2022-08-08T00:13:02.214Z,21.90
2022-08-08T00:15:56.933Z,22.00
2022-08-08T00:18:40.619Z,22.30
2022-08-08T00:21:08.876Z,22.00
2022-08-08T00:23:57.749Z,22.40
2022-08-08T00:26:32.877Z,22.40
2022-08-08T00:29:08.164Z,22.10
2022-08-08T00:32:20.397Z,22.60
2022-08-08T00:35:04.112Z,22.60
2022-08-08T00:37:48.015Z,22.70
2022-08-08T00:41:12.597Z,22.60
2022-08-08T00:43:20.357Z,22.40
2022-08-08T00:45:48.170Z,22.50
2022-08-08T00:48:29.910Z,22.40
2022-08-08T00:50:57.851Z,22.70
2022-08-08T00:53:29.258Z,23.00
2022-08-08T00:56:16.354Z,22.80
2022-08-08T00:58:58.897Z,22.90
2022-08-08T01:01:38.175Z,22.70
2022-08-08T01:04:06.311Z,22.70
2022-08-08T01:06:57.345Z,22.80
2022-08-08T01:10:08.673Z,22.80
2022-08-08T01:13:02.336Z,22.80
2022-08-08T01:16:01.932Z,22.70
2022-08-08T01:18:53.764Z,23.00
2022-08-08T01:22:09.977Z,22.90
2022-08-08T01:24:27.276Z,23.10
2022-08-08T01:27:10.974Z,23.20
2022-08-08T01:30:03.383Z,22.80
2022-08-08T01:32:51.875Z,23.00
2022-08-08T01:38:53.730Z,22.90
2022-08-08T01:41:52.860Z,22.70
2022-08-08T01:44:31.333Z,22.70
2022-08-08T01:48:13.961Z,22.90
2022-08-08T01:50:26.522Z,22.50
2022-08-08T01:55:16.094Z,22.50
2022-08-08T01:56:28.560Z,22.10
2022-08-08T01:58:49.886Z,22.50
2022-08-08T02:01:20.218Z,22.50
2022-08-08T02:04:16.832Z,22.20
2022-08-08T02:07:04.123Z,22.10
2022-08-08T02:10:02.231Z,22.20
2022-08-08T02:12:42.924Z,22.00
2022-08-08T02:15:13.243Z,22.00
2022-08-08T02:21:28.825Z,21.70
2022-08-08T02:27:20.332Z,21.60
2022-08-08T02:30:21.544Z,21.90
2022-08-08T02:33:14.611Z,21.60
2022-08-08T02:36:04.175Z,21.20
2022-08-08T02:39:01.288Z,21.10
2022-08-08T02:42:10.564Z,20.90
2022-08-08T02:45:22.385Z,21.10
2022-08-08T02:48:06.161Z,21.00
2022-08-08T02:50:55.681Z,21.30
2022-08-08T02:53:26.181Z,21.00
2022-08-08T02:56:01.395Z,21.10
2022-08-08T02:58:48.797Z,21.50
2022-08-08T03:01:47.247Z,21.30
2022-08-08T03:05:04.991Z,21.40
2022-08-08T03:07:57.922Z,21.70
2022-08-08T03:10:53.817Z,21.70
2022-08-08T03:15:59.617Z,21.30
2022-08-08T03:16:48.308Z,21.70
2022-08-08T03:19:25.314Z,21.70
2022-08-08T03:21:58.659Z,21.80
2022-08-08T03:24:28.681Z,21.60
2022-08-08T03:26:58.871Z,21.50
2022-08-08T03:29:55.102Z,21.40
2022-08-08T03:32:33.775Z,21.20
2022-08-08T03:35:01.774Z,21.00
2022-08-08T03:38:00.275Z,20.80
2022-08-08T03:40:29.745Z,20.60
2022-08-08T03:42:58.715Z,20.90
2022-08-08T03:46:06.016Z,21.00
2022-08-08T03:49:10.116Z,21.00
2022-08-08T03:51:19.495Z,20.80
2022-08-08T03:54:05.637Z,21.00
2022-08-08T03:56:35.715Z,20.40
2022-08-08T03:59:02.971Z,20.40
2022-08-08T04:02:02.418Z,20.50
2022-08-08T04:04:30.989Z,20.40
2022-08-08T04:07:01.370Z,20.40
2022-08-08T04:09:30.815Z,20.30
2022-08-08T04:12:16.192Z,20.40
2022-08-08T04:14:44.942Z,20.60
2022-08-08T04:17:22.891Z,20.30
2022-08-08T04:20:02.037Z,20.30
2022-08-08T04:22:32.140Z,20.10
2022-08-08T04:25:02.313Z,20.20
2022-08-08T04:28:01.409Z,19.90
2022-08-08T04:30:19.180Z,20.00
2022-08-08T04:32:49.951Z,20.10
2022-08-08T04:35:20.354Z,19.90
2022-08-08T04:37:50.890Z,19.90
2022-08-08T04:40:18.483Z,20.30
2022-08-08T04:42:56.038Z,19.80
2022-08-08T04:45:25.560Z,19.90
2022-08-08T04:47:53.418Z,20.50
2022-08-08T04:50:24.300Z,20.50
2022-08-08T04:52:58.925Z,19.80
2022-08-08T04:55:29.312Z,20.40
2022-08-08T04:58:17.711Z,20.60
2022-08-08T05:00:45.183Z,20.30
2022-08-08T05:03:18.872Z,20.60
2022-08-08T05:06:13.083Z,20.70
2022-08-08T05:08:41.847Z,20.70
2022-08-08T05:11:09.498Z,20.80
2022-08-08T05:13:58.048Z,20.90
2022-08-08T05:16:54.432Z,20.90
2022-08-08T05:20:09.147Z,21.20
2022-08-08T05:22:01.952Z,21.30
2022-08-08T05:24:30.732Z,21.40
2022-08-08T05:26:58.190Z,21.30
2022-08-08T05:29:29.050Z,21.40
2022-08-08T05:32:04.987Z,21.50
2022-08-08T05:34:43.639Z,21.60
2022-08-08T05:37:17.251Z,21.40
2022-08-08T05:39:46.936Z,21.70
2022-08-08T05:42:15.349Z,21.50
2022-08-08T05:44:45.369Z,21.50
2022-08-08T05:47:14.209Z,21.70
2022-08-08T05:49:54.092Z,21.70
2022-08-08T05:52:32.050Z,21.50
2022-08-08T05:55:07.545Z,21.40
2022-08-08T05:58:05.335Z,21.40
2022-08-08T06:00:25.717Z,21.50
2022-08-08T06:03:22.929Z,21.40
2022-08-08T06:05:59.602Z,21.40
2022-08-08T06:08:34.440Z,21.20
2022-08-08T06:11:02.770Z,21.60
2022-08-08T06:13:36.450Z,21.60
2022-08-08T06:16:14.813Z,21.80
2022-08-08T06:18:41.947Z,21.90
2022-08-08T06:21:28.406Z,22.20
2022-08-08T06:24:01.902Z,22.20
2022-08-08T06:26:38.722Z,22.50
2022-08-08T06:29:49.178Z,22.30
2022-08-08T06:32:09.942Z,22.40
2022-08-08T06:34:38.130Z,22.50
2022-08-08T06:37:24.846Z,22.50
2022-08-08T06:39:56.288Z,22.40
2022-08-08T06:42:24.112Z,22.70
2022-08-08T06:44:53.463Z,22.70
2022-08-08T06:47:22.000Z,22.80
2022-08-08T06:49:54.980Z,23.20
2022-08-08T06:52:24.131Z,23.20
2022-08-08T06:54:58.634Z,23.20
2022-08-08T06:57:29.267Z,23.30
2022-08-08T07:00:12.486Z,23.60
2022-08-08T07:02:46.019Z,23.80
2022-08-08T07:05:20.865Z,24.00
2022-08-08T07:07:51.835Z,23.70
2022-08-08T07:10:21.058Z,24.10
2022-08-08T07:13:08.462Z,24.10
2022-08-08T07:16:06.137Z,23.70
2022-08-08T07:18:50.268Z,24.30
2022-08-08T07:21:20.222Z,24.20
2022-08-08T07:24:01.751Z,24.10
2022-08-08T07:26:35.713Z,24.20
2022-08-08T07:29:05.513Z,24.40
2022-08-08T07:31:35.275Z,24.40
2022-08-08T07:34:03.410Z,24.70
2022-08-08T07:36:37.256Z,25.00
2022-08-08T07:39:10.841Z,25.50
2022-08-08T07:41:59.179Z,25.90
2022-08-08T07:44:38.239Z,26.60
2022-08-08T07:47:08.874Z,28.40
2022-08-08T07:49:42.105Z,28.80
2022-08-08T07:52:23.040Z,30.60
2022-08-08T07:54:57.119Z,29.90
2022-08-08T07:57:36.273Z,30.50
2022-08-08T08:00:05.190Z,30.30
2022-08-08T08:02:45.332Z,30.20
2022-08-08T08:05:19.911Z,30.00
2022-08-08T08:07:52.876Z,30.40
2022-08-08T08:10:30.602Z,31.10
2022-08-08T08:13:20.459Z,31.70
2022-08-08T08:16:00.167Z,31.30
2022-08-08T08:18:32.267Z,31.20
2022-08-08T08:21:00.322Z,31.30
2022-08-08T08:23:27.637Z,32.10
2022-08-08T08:26:07.987Z,31.70
2022-08-08T08:28:35.195Z,32.40
2022-08-08T08:31:04.910Z,32.10
2022-08-08T08:33:32.494Z,32.40
2022-08-08T08:36:18.554Z,33.60
2022-08-08T08:38:49.262Z,32.80
2022-08-08T08:41:20.129Z,32.60
2022-08-08T08:43:49.556Z,33.40
2022-08-08T08:46:18.918Z,32.40
2022-08-08T08:48:49.165Z,32.30
2022-08-08T08:51:17.805Z,32.20
2022-08-08T08:53:56.085Z,31.40
2022-08-08T08:56:27.591Z,31.50
2022-08-08T08:58:55.239Z,32.10
2022-08-08T09:01:24.674Z,31.70
2022-08-08T09:03:51.873Z,32.10
2022-08-08T09:06:28.752Z,31.90
2022-08-08T09:09:07.353Z,31.30
2022-08-08T09:11:46.944Z,29.90
2022-08-08T09:14:14.739Z,30.20
2022-08-08T09:16:41.838Z,30.50
2022-08-08T09:19:09.655Z,31.00
2022-08-08T09:22:04.770Z,31.10
2022-08-08T09:24:23.854Z,30.90
2022-08-08T09:27:06.101Z,31.10
2022-08-08T09:29:59.706Z,30.70
2022-08-08T09:32:35.437Z,31.20
2022-08-08T09:35:08.243Z,30.30
2022-08-08T09:38:01.155Z,30.10
2022-08-08T09:40:42.744Z,30.00
2022-08-08T09:43:23.002Z,30.00
2022-08-08T09:46:11.026Z,29.20
2022-08-08T09:48:50.170Z,29.30
2022-08-08T09:51:17.438Z,30.10
2022-08-08T09:54:03.383Z,29.40
2022-08-08T09:56:41.172Z,29.10
2022-08-08T09:59:40.416Z,28.80
2022-08-08T10:02:04.018Z,29.10
2022-08-08T10:04:47.397Z,29.30
2022-08-08T10:07:16.406Z,29.10
2022-08-08T10:09:59.630Z,29.30
2022-08-08T10:12:38.668Z,29.30
2022-08-08T10:15:19.704Z,29.40
2022-08-08T10:18:05.977Z,29.20
2022-08-08T10:20:51.417Z,29.20
2022-08-08T10:23:43.247Z,29.20
2022-08-08T10:26:25.728Z,29.20
2022-08-08T10:29:11.500Z,29.30
2022-08-08T10:31:57.907Z,29.50
2022-08-08T10:34:27.377Z,29.50
2022-08-08T10:36:56.976Z,29.40
2022-08-08T10:39:43.094Z,29.10
2022-08-08T10:42:15.500Z,29.10
2022-08-08T10:44:45.627Z,29.10
2022-08-08T10:47:55.281Z,29.50
2022-08-08T10:50:31.020Z,29.60
2022-08-08T10:53:21.682Z,29.70
2022-08-08T10:57:00.536Z,29.20
2022-08-08T10:59:40.876Z,29.80
2022-08-08T11:02:09.829Z,30.10
2022-08-08T11:04:53.140Z,30.10
2022-08-08T11:08:30.151Z,30.20
2022-08-08T11:10:30.855Z,30.00
2022-08-08T11:13:28.589Z,30.10
2022-08-08T11:16:32.863Z,29.90
2022-08-08T11:19:26.299Z,30.10
2022-08-08T11:21:55.433Z,30.00
2022-08-08T11:24:25.506Z,30.20
2022-08-08T11:26:53.981Z,30.40
2022-08-08T11:29:51.118Z,30.80
2022-08-08T11:32:30.389Z,30.90
2022-08-08T11:35:37.493Z,30.70
2022-08-08T11:38:37.126Z,30.90
2022-08-08T11:41:06.977Z,30.80
2022-08-08T11:43:38.841Z,30.50
2022-08-08T11:46:14.066Z,30.60
2022-08-08T11:48:47.583Z,30.90
2022-08-08T11:51:30.905Z,30.90
2022-08-08T11:54:04.254Z,31.30
2022-08-08T11:56:32.369Z,31.40
2022-08-08T11:59:05.739Z,31.50
2022-08-08T12:01:33.290Z,31.40
2022-08-08T12:04:03.443Z,31.00
2022-08-08T12:06:32.543Z,31.10
2022-08-08T12:09:07.234Z,31.10
2022-08-08T12:11:39.753Z,31.40
2022-08-08T12:14:07.757Z,31.50
2022-08-08T12:16:48.901Z,31.60
2022-08-08T12:19:16.392Z,31.40
2022-08-08T12:22:05.682Z,31.10
2022-08-08T12:24:43.434Z,30.90
2022-08-08T12:27:19.030Z,31.30
2022-08-08T12:29:59.922Z,31.20
2022-08-08T12:32:31.343Z,30.40
2022-08-08T12:35:13.717Z,31.20
2022-08-08T12:38:01.185Z,31.30
2022-08-08T12:40:54.190Z,31.90
2022-08-08T12:43:28.135Z,31.90
2022-08-08T12:46:03.420Z,31.80
2022-08-08T12:48:37.059Z,31.80
2022-08-08T12:51:05.924Z,32.10
2022-08-08T12:53:44.735Z,31.50
2022-08-08T12:56:19.719Z,31.50
2022-08-08T12:58:52.056Z,31.80
2022-08-08T13:01:24.407Z,31.90
2022-08-08T13:04:12.052Z,32.50
2022-08-08T13:06:53.172Z,32.80
2022-08-08T13:09:30.527Z,32.60
2022-08-08T13:12:26.791Z,32.80
2022-08-08T13:14:53.215Z,32.20
2022-08-08T13:18:07.901Z,33.10
2022-08-08T13:20:17.271Z,32.70
2022-08-08T13:22:45.853Z,33.00
2022-08-08T13:25:17.122Z,33.40
2022-08-08T13:27:44.285Z,32.60
2022-08-08T13:30:19.199Z,32.30
2022-08-08T13:32:48.115Z,32.20
2022-08-08T13:35:24.828Z,32.10
2022-08-08T13:38:06.525Z,32.20
2022-08-08T13:40:35.923Z,32.10
2022-08-08T13:43:08.353Z,32.40
2022-08-08T13:45:36.786Z,32.90
2022-08-08T13:48:05.728Z,32.90
2022-08-08T13:50:50.519Z,33.00
2022-08-08T13:53:34.258Z,33.00
2022-08-08T13:56:06.074Z,33.40
2022-08-08T13:58:34.462Z,33.10
2022-08-08T14:01:17.388Z,33.50
2022-08-08T14:03:54.555Z,33.80
2022-08-08T14:06:34.006Z,33.60
2022-08-08T14:09:24.421Z,33.20
2022-08-08T14:11:48.902Z,33.50
2022-08-08T14:14:20.996Z,33.80
2022-08-08T14:16:53.287Z,33.90
2022-08-08T14:19:58.058Z,33.70
2022-08-08T14:22:18.669Z,33.00
2022-08-08T14:24:49.722Z,33.50
2022-08-08T14:27:17.947Z,33.20
2022-08-08T14:29:55.102Z,33.30
2022-08-08T14:32:29.864Z,33.20
2022-08-08T14:34:58.506Z,33.70
2022-08-08T14:37:27.844Z,33.20
2022-08-08T14:40:06.776Z,33.60
2022-08-08T14:42:35.494Z,33.60
2022-08-08T14:45:04.672Z,33.80
2022-08-08T14:47:43.794Z,33.90
2022-08-08T14:50:15.100Z,33.60
2022-08-08T14:52:48.211Z,32.90
2022-08-08T14:55:16.444Z,33.10
2022-08-08T14:58:02.661Z,33.60
2022-08-08T15:00:34.099Z,33.90
2022-08-08T15:03:14.220Z,34.50
2022-08-08T15:05:53.300Z,33.90
2022-08-08T15:08:35.569Z,34.40
2022-08-08T15:11:07.334Z,34.90
2022-08-08T15:13:40.848Z,35.40
2022-08-08T15:16:24.553Z,34.80
2022-08-08T15:18:51.992Z,35.00
2022-08-08T15:21:19.487Z,34.80
2022-08-08T15:23:51.208Z,35.20
2022-08-08T15:26:19.968Z,35.10
2022-08-08T15:28:53.198Z,35.70
2022-08-08T15:31:55.858Z,35.50
2022-08-08T15:34:30.123Z,35.70
2022-08-08T15:36:56.646Z,34.80
2022-08-08T15:39:23.793Z,34.70
2022-08-08T15:41:54.009Z,34.60
2022-08-08T15:44:21.221Z,34.30
2022-08-08T15:46:50.575Z,34.80
2022-08-08T15:49:20.739Z,34.60
2022-08-08T15:51:49.877Z,34.00
2022-08-08T15:54:37.680Z,34.00
2022-08-08T15:57:07.391Z,33.80
2022-08-08T16:00:18.098Z,33.20
2022-08-08T16:02:22.207Z,34.10
2022-08-08T16:04:59.403Z,33.70
2022-08-08T16:07:39.475Z,34.00
2022-08-08T16:13:27.755Z,33.70
2022-08-08T16:13:28.302Z,33.40
2022-08-08T16:15:59.215Z,32.60
2022-08-08T16:18:27.555Z,32.20
2022-08-08T16:21:00.688Z,31.90
2022-08-08T16:23:32.478Z,32.40
2022-08-08T16:26:04.030Z,32.40
2022-08-08T16:28:35.086Z,32.30
2022-08-08T16:31:26.852Z,32.00
2022-08-08T16:34:15.620Z,31.50
2022-08-08T16:37:16.447Z,31.20
2022-08-08T16:40:02.507Z,31.40
2022-08-08T16:42:54.467Z,31.30
2022-08-08T16:46:37.516Z,31.10
2022-08-08T16:48:39.252Z,31.40
2022-08-08T16:55:06.801Z,31.50
2022-08-08T16:55:22.688Z,31.00
2022-08-08T16:57:23.414Z,30.70
2022-08-08T16:59:53.811Z,30.80
2022-08-08T17:02:37.866Z,30.90
2022-08-08T17:05:10.176Z,31.00
2022-08-08T17:07:41.965Z,31.10
2022-08-08T17:10:09.679Z,30.90
2022-08-08T17:12:37.506Z,30.90
2022-08-08T17:15:17.463Z,30.90
2022-08-08T17:18:03.184Z,30.80
2022-08-08T17:20:31.813Z,30.50
2022-08-08T17:23:16.492Z,30.80
2022-08-08T17:25:53.540Z,30.50
2022-08-08T17:28:34.027Z,30.30
2022-08-08T17:31:43.448Z,30.40
2022-08-08T17:34:48.603Z,30.40
2022-08-08T17:36:38.311Z,30.30
2022-08-08T17:39:45.531Z,30.30
2022-08-08T17:42:09.747Z,30.30
2022-08-08T17:44:37.363Z,30.30
2022-08-08T17:47:09.432Z,30.00
2022-08-08T17:49:42.408Z,30.00
2022-08-08T17:52:10.795Z,29.80
2022-08-08T17:54:37.906Z,29.70
2022-08-08T17:57:06.269Z,29.70
2022-08-08T17:59:36.446Z,29.70
2022-08-08T18:02:18.801Z,29.30
2022-08-08T18:04:51.020Z,29.60
2022-08-08T18:08:03.252Z,29.60
2022-08-08T18:10:08.566Z,29.40
2022-08-08T18:12:35.835Z,29.40
2022-08-08T18:15:03.900Z,29.50
2022-08-08T18:18:05.264Z,29.50
2022-08-08T18:20:43.723Z,29.60
2022-08-08T18:23:14.589Z,29.50
2022-08-08T18:25:42.484Z,29.30
2022-08-08T18:28:13.585Z,29.60
2022-08-08T18:30:42.871Z,29.10
2022-08-08T18:33:36.913Z,29.40
2022-08-08T18:36:02.873Z,29.30
2022-08-08T18:38:31.093Z,29.10
2022-08-08T18:40:59.579Z,29.10
2022-08-08T18:43:37.741Z,29.10
2022-08-08T18:46:54.433Z,29.10
2022-08-08T18:48:56.859Z,29.00
2022-08-08T18:51:53.332Z,29.10
2022-08-08T18:54:22.347Z,29.00
2022-08-08T18:57:23.452Z,29.00
2022-08-08T19:02:48.081Z,28.70
2022-08-08T19:05:22.290Z,28.60
2022-08-08T19:07:52.132Z,28.70
2022-08-08T19:10:20.023Z,28.40
2022-08-08T19:12:49.919Z,28.60
2022-08-08T19:15:23.558Z,28.20
2022-08-08T19:18:32.408Z,28.40
2022-08-08T19:20:40.769Z,28.30
2022-08-08T19:23:10.295Z,28.30
2022-08-08T19:26:20.193Z,28.10
2022-08-08T19:28:24.777Z,27.80
2022-08-08T19:31:03.849Z,27.90
2022-08-08T19:33:52.194Z,27.80
2022-08-08T19:36:27.763Z,27.80
2022-08-08T19:38:56.193Z,27.60
2022-08-08T19:41:29.831Z,27.40
2022-08-08T19:44:04.018Z,27.50
2022-08-08T19:46:40.009Z,27.40
2022-08-08T19:49:07.729Z,27.70
2022-08-08T19:51:43.193Z,27.60
2022-08-08T19:54:11.410Z,27.40
2022-08-08T19:56:40.870Z,27.50
2022-08-08T19:59:08.926Z,27.50
2022-08-08T20:02:01.867Z,27.30
2022-08-08T20:04:24.128Z,27.20
2022-08-08T20:06:51.865Z,27.20
2022-08-08T20:09:22.832Z,27.10
2022-08-08T20:11:52.062Z,26.90
2022-08-08T20:14:34.196Z,26.90
2022-08-08T20:17:27.010Z,26.70
2022-08-08T20:20:10.894Z,27.00
2022-08-08T20:22:56.534Z,26.80
2022-08-08T20:25:35.556Z,26.70
2022-08-08T20:32:07.516Z,26.70
2022-08-08T20:34:47.511Z,26.80
2022-08-08T20:37:37.316Z,26.80
2022-08-08T20:40:39.015Z,26.90
2022-08-08T20:43:43.602Z,26.90
2022-08-08T20:46:15.221Z,26.70
2022-08-08T20:48:42.336Z,26.30
2022-08-08T20:51:09.471Z,25.10
2022-08-08T20:54:00.214Z,24.40
2022-08-08T20:56:35.656Z,24.70
2022-08-08T20:59:12.613Z,25.00
2022-08-08T21:02:05.643Z,25.50
2022-08-08T21:04:27.978Z,25.40
2022-08-08T21:06:55.603Z,25.80
2022-08-08T21:09:23.327Z,25.90
2022-08-08T21:12:03.171Z,26.00
2022-08-08T21:14:34.415Z,26.10
2022-08-08T21:17:06.246Z,26.10
2022-08-08T21:19:44.091Z,26.00
2022-08-08T21:22:12.820Z,25.50
2022-08-08T21:24:41.870Z,25.40
2022-08-08T21:28:05.453Z,25.50
2022-08-08T21:30:10.772Z,25.60
2022-08-08T21:32:51.886Z,25.80
2022-08-08T21:36:14.585Z,25.50
2022-08-08T21:38:16.745Z,25.50
2022-08-08T21:40:54.879Z,24.90
2022-08-08T21:43:34.807Z,25.20
2022-08-08T21:48:04.029Z,24.90
2022-08-08T21:48:55.187Z,24.90
2022-08-08T21:54:32.492Z,24.70
2022-08-08T21:54:33.128Z,24.50
2022-08-08T21:56:59.163Z,24.50
2022-08-08T21:59:43.807Z,24.30
2022-08-08T22:02:14.549Z,24.40
2022-08-08T22:04:43.241Z,24.20
2022-08-08T22:07:10.618Z,24.20
2022-08-08T22:09:40.849Z,24.20
2022-08-08T22:12:14.938Z,24.50
2022-08-08T22:14:47.359Z,24.40
2022-08-08T22:17:19.241Z,24.10
2022-08-08T22:20:11.337Z,24.00
2022-08-08T22:22:37.465Z,24.10
2022-08-08T22:25:12.475Z,24.20
2022-08-08T22:28:04.036Z,24.00
2022-08-08T22:30:40.881Z,24.00
2022-08-08T22:34:11.099Z,24.10
2022-08-08T22:36:04.307Z,24.10
2022-08-08T22:38:39.446Z,24.70
2022-08-08T22:41:21.283Z,24.70
2022-08-08T22:44:05.434Z,24.90
2022-08-08T22:46:34.219Z,24.90
2022-08-08T22:49:01.501Z,25.00
2022-08-08T22:51:29.604Z,24.80
2022-08-08T22:54:33.967Z,24.70
2022-08-08T22:56:50.171Z,24.80
2022-08-08T22:59:18.619Z,24.80
2022-08-08T23:02:03.668Z,24.90
2022-08-08T23:04:33.675Z,25.10
2022-08-08T23:07:03.046Z,25.10
2022-08-08T23:09:31.186Z,25.20
2022-08-08T23:12:28.443Z,24.90
2022-08-08T23:14:59.853Z,25.10
2022-08-08T23:17:54.538Z,25.10
2022-08-08T23:20:27.144Z,24.90
2022-08-08T23:22:55.270Z,24.90
2022-08-08T23:25:23.459Z,24.80
2022-08-08T23:27:54.332Z,25.00
2022-08-08T23:30:22.725Z,24.60
2022-08-08T23:32:50.888Z,24.50
2022-08-08T23:35:18.782Z,24.60
2022-08-08T23:38:01.899Z,24.90
2022-08-08T23:40:30.790Z,24.60
2022-08-08T23:42:57.958Z,24.60
2022-08-08T23:49:00.412Z,24.70
2022-08-08T23:49:04.474Z,24.90
2022-08-08T23:50:59.445Z,24.70
2022-08-08T23:54:04.947Z,24.70
2022-08-08T23:56:23.931Z,24.30
2022-08-08T23:58:59.750Z,24.20
